Time;durP1;ratioP1;P1;durP2;ratioP2;P2;SDS_P1;SDS_P2;PMS_P1;PMS_P2;Temp;Humidity;BMP_temperature;BMP_pressure;BME280_temperature;BME280_humidity;BME280_pressure;Samples;Min_cycle;Max_cycle;Signal;HPM_P1;HPM_P2
2023/05/07 00:00:34;;;;;;;0.00;0.00;;;14.60;84.50;;;;;;5004154;28;20549;-65
2023/05/07 00:02:59;;;;;;;0.00;0.00;;;14.60;84.40;;;;;;4990835;28;20045;-65
2023/05/07 00:05:25;;;;;;;0.00;0.00;;;14.60;84.60;;;;;;4992986;28;20069;-65
2023/05/07 00:07:52;;;;;;;0.00;0.00;;;14.60;85.00;;;;;;5004516;28;20054;-65
2023/05/07 00:10:19;;;;;;;0.00;0.00;;;14.60;85.10;;;;;;4999414;28;20068;-66
2023/05/07 00:12:44;;;;;;;0.00;0.00;;;14.50;84.90;;;;;;5009541;28;20368;-65
2023/05/07 00:15:10;;;;;;;0.00;0.00;;;14.60;85.00;;;;;;5010763;28;20092;-66
2023/05/07 00:17:36;;;;;;;0.00;0.00;;;14.60;84.70;;;;;;5005326;28;20042;-65
2023/05/07 00:20:04;;;;;;;0.00;0.00;;;14.50;84.80;;;;;;4995948;28;20100;-65
2023/05/07 00:22:30;;;;;;;0.00;0.00;;;14.60;84.90;;;;;;5010219;28;20073;-65
2023/05/07 00:24:56;;;;;;;0.00;0.00;;;14.60;84.60;;;;;;4997267;28;20049;-65
2023/05/07 00:27:22;;;;;;;0.00;0.00;;;14.50;84.60;;;;;;4982887;28;20039;-65
2023/05/07 00:29:48;;;;;;;0.10;0.10;;;14.50;84.50;;;;;;4983698;28;20566;-66
2023/05/07 00:32:13;;;;;;;0.00;0.00;;;14.50;84.60;;;;;;4974420;28;20038;-65
2023/05/07 00:34:39;;;;;;;0.00;0.00;;;14.50;84.60;;;;;;4993182;28;20050;-65
2023/05/07 00:37:07;;;;;;;0.00;0.00;;;14.50;84.50;;;;;;4990144;28;20101;-64
2023/05/07 00:39:33;;;;;;;0.00;0.00;;;14.40;84.70;;;;;;4990557;28;20046;-65
2023/05/07 00:41:58;;;;;;;0.00;0.00;;;14.40;84.80;;;;;;4989499;28;20510;-65
2023/05/07 00:44:24;;;;;;;0.03;0.03;;;14.40;85.00;;;;;;4985361;28;20042;-65
2023/05/07 00:46:50;;;;;;;0.00;0.00;;;14.40;85.00;;;;;;4990953;28;20054;-65
2023/05/07 00:49:16;;;;;;;0.00;0.00;;;14.30;84.90;;;;;;4996871;28;20034;-65
2023/05/07 00:51:42;;;;;;;0.00;0.00;;;14.40;84.90;;;;;;5008315;28;20050;-65
2023/05/07 00:54:08;;;;;;;0.00;0.00;;;14.40;84.90;;;;;;5006232;28;20041;-65
2023/05/07 00:56:35;;;;;;;0.00;0.00;;;14.40;84.90;;;;;;4993624;28;20048;-65
2023/05/07 00:59:02;;;;;;;0.00;0.00;;;14.30;84.80;;;;;;4993504;28;20046;-65
2023/05/07 01:01:28;;;;;;;0.00;0.00;;;14.30;84.80;;;;;;4979860;28;20579;-65
2023/05/07 01:03:54;;;;;;;0.00;0.00;;;14.30;84.90;;;;;;4996725;28;20029;-65
2023/05/07 01:06:21;;;;;;;0.10;0.10;;;14.30;85.00;;;;;;4985319;28;20096;-65
2023/05/07 01:08:49;;;;;;;0.00;0.00;;;14.30;85.10;;;;;;4989868;28;20066;-65
2023/05/07 01:11:15;;;;;;;0.00;0.00;;;14.30;85.00;;;;;;4989522;28;20058;-64
2023/05/07 01:13:42;;;;;;;0.00;0.00;;;14.20;85.10;;;;;;4992808;28;20555;-65
2023/05/07 01:16:09;;;;;;;0.00;0.00;;;14.30;85.00;;;;;;5009568;28;20053;-63
2023/05/07 01:18:35;;;;;;;0.13;0.13;;;14.20;85.00;;;;;;5008498;28;20049;-64
2023/05/07 01:21:03;;;;;;;0.00;0.00;;;14.20;85.00;;;;;;5009899;28;20111;-64
2023/05/07 01:23:30;;;;;;;0.00;0.00;;;14.20;85.00;;;;;;5007683;28;20092;-64
2023/05/07 01:25:56;;;;;;;0.00;0.00;;;14.20;85.10;;;;;;5007228;28;20049;-64
2023/05/07 01:28:21;;;;;;;0.00;0.00;;;14.10;85.00;;;;;;5006942;28;20042;-64
2023/05/07 01:30:53;;;;;;;0.00;0.00;;;14.10;85.00;;;;;;4995473;28;20104;-64
2023/05/07 01:33:23;;;;;;;0.35;0.35;;;14.10;85.10;;;;;;5011034;28;20060;-64
2023/05/07 01:35:52;;;;;;;0.00;0.00;;;14.10;85.20;;;;;;5013460;28;20034;-64
2023/05/07 01:38:19;;;;;;;0.20;0.20;;;14.10;84.90;;;;;;5011363;28;20049;-64
2023/05/07 01:40:45;;;;;;;0.10;0.10;;;14.10;85.10;;;;;;5009272;28;20041;-64
2023/05/07 01:43:10;;;;;;;0.00;0.00;;;14.10;85.30;;;;;;4992765;28;20097;-64
2023/05/07 01:45:37;;;;;;;0.03;0.03;;;14.10;85.40;;;;;;4994109;28;20491;-64
2023/05/07 01:48:03;;;;;;;0.00;0.00;;;14.10;85.60;;;;;;4992702;28;20050;-64
2023/05/07 01:50:30;;;;;;;0.00;0.00;;;14.00;85.30;;;;;;4992611;28;20392;-64
2023/05/07 01:52:56;;;;;;;0.15;0.15;;;14.00;85.20;;;;;;4973759;28;20053;-64
2023/05/07 01:55:21;;;;;;;0.00;0.00;;;13.90;85.30;;;;;;5001332;28;20038;-64
2023/05/07 01:57:47;;;;;;;0.00;0.00;;;14.00;85.40;;;;;;4993924;28;20125;-64
2023/05/07 02:00:13;;;;;;;0.08;0.08;;;13.90;85.40;;;;;;5004749;28;20038;-64
2023/05/07 02:02:38;;;;;;;0.52;0.52;;;13.90;85.50;;;;;;4993284;28;20057;-64
2023/05/07 02:05:04;;;;;;;0.10;0.10;;;13.90;85.60;;;;;;5005712;28;20049;-64
2023/05/07 02:07:30;;;;;;;0.00;0.00;;;13.90;85.60;;;;;;4995141;28;20050;-64
2023/05/07 02:09:56;;;;;;;0.00;0.00;;;13.80;85.60;;;;;;5010577;28;20178;-64
2023/05/07 02:12:22;;;;;;;0.00;0.00;;;13.80;86.10;;;;;;5011009;28;20038;-64
2023/05/07 02:14:48;;;;;;;0.00;0.00;;;13.80;86.40;;;;;;5010250;28;20060;-64
2023/05/07 02:17:13;;;;;;;0.43;0.43;;;13.80;86.20;;;;;;5011962;28;20046;-64
2023/05/07 02:19:39;;;;;;;0.00;0.00;;;13.70;87.00;;;;;;5012442;28;20052;-64
2023/05/07 02:22:05;;;;;;;0.20;0.20;;;13.70;86.70;;;;;;5003733;28;20038;-64
2023/05/07 02:24:30;;;;;;;0.00;0.00;;;13.70;86.30;;;;;;4991589;28;20065;-64
2023/05/07 02:26:56;;;;;;;0.00;0.00;;;13.70;86.30;;;;;;4987970;28;20085;-64
2023/05/07 02:29:21;;;;;;;0.00;0.00;;;13.70;86.20;;;;;;4983999;28;20053;-64
2023/05/07 02:31:50;;;;;;;0.28;0.28;;;13.70;85.90;;;;;;4993568;28;20052;-64
2023/05/07 02:34:16;;;;;;;0.10;0.10;;;13.70;86.40;;;;;;4991894;28;20042;-64
2023/05/07 02:36:42;;;;;;;0.00;0.00;;;13.60;87.10;;;;;;4991722;28;20053;-64
2023/05/07 02:39:08;;;;;;;0.17;0.17;;;13.60;86.70;;;;;;4991841;28;20046;-64
2023/05/07 02:41:33;;;;;;;0.10;0.10;;;13.60;86.70;;;;;;4986822;28;20727;-64
2023/05/07 02:43:59;;;;;;;0.00;0.00;;;13.60;87.00;;;;;;4991437;28;20058;-64
2023/05/07 02:46:24;;;;;;;0.00;0.00;;;13.50;87.30;;;;;;4990742;28;20420;-64
2023/05/07 02:48:50;;;;;;;0.00;0.00;;;13.50;87.00;;;;;;4990913;28;20042;-64
2023/05/07 02:51:20;;;;;;;0.22;0.22;;;13.50;87.00;;;;;;4995044;28;20820;-63
2023/05/07 02:53:46;;;;;;;0.00;0.00;;;13.50;87.10;;;;;;4990891;28;20493;-64
2023/05/07 02:56:12;;;;;;;0.25;0.25;;;13.40;87.30;;;;;;4990629;28;20031;-64
2023/05/07 02:58:39;;;;;;;0.10;0.10;;;13.40;87.40;;;;;;4986673;28;20193;-64
2023/05/07 03:01:05;;;;;;;0.00;0.00;;;13.40;87.00;;;;;;4992423;28;20747;-65
2023/05/07 03:03:31;;;;;;;0.20;0.20;;;13.30;87.00;;;;;;4987723;28;20518;-64
2023/05/07 03:05:56;;;;;;;0.00;0.00;;;13.30;86.80;;;;;;4990139;28;20038;-64
2023/05/07 03:08:22;;;;;;;0.10;0.10;;;13.30;86.80;;;;;;4989951;28;20109;-64
2023/05/07 03:10:48;;;;;;;6.28;2.35;;;13.30;86.60;;;;;;4990512;28;20447;-64
2023/05/07 03:13:14;;;;;;;0.30;0.30;;;13.30;86.80;;;;;;4990291;28;20125;-64
2023/05/07 03:15:39;;;;;;;0.10;0.10;;;13.30;87.00;;;;;;4989084;28;20097;-64
2023/05/07 03:18:05;;;;;;;0.10;0.10;;;13.30;86.70;;;;;;4990147;28;20046;-64
2023/05/07 03:20:31;;;;;;;0.00;0.00;;;13.20;86.40;;;;;;4991013;28;20108;-64
2023/05/07 03:22:56;;;;;;;0.00;0.00;;;13.20;86.80;;;;;;4990652;28;20050;-64
2023/05/07 03:25:22;;;;;;;0.00;0.00;;;13.20;87.10;;;;;;4990743;28;20035;-64
2023/05/07 03:27:47;;;;;;;0.10;0.10;;;13.20;86.90;;;;;;4988707;28;20046;-64
2023/05/07 03:30:13;;;;;;;0.10;0.10;;;13.20;86.60;;;;;;4989925;28;20101;-63
2023/05/07 03:32:38;;;;;;;0.00;0.00;;;13.20;86.70;;;;;;4992301;28;20043;-64
2023/05/07 03:35:04;;;;;;;0.00;0.00;;;13.10;86.50;;;;;;5003517;28;20054;-63
2023/05/07 03:37:30;;;;;;;0.00;0.00;;;13.10;86.70;;;;;;5010696;28;20046;-64
2023/05/07 03:39:56;;;;;;;0.00;0.00;;;13.10;86.80;;;;;;5002855;28;21062;-64
2023/05/07 03:42:21;;;;;;;0.00;0.00;;;13.10;86.70;;;;;;4990500;28;20049;-64
2023/05/07 03:44:47;;;;;;;0.32;0.20;;;13.00;86.50;;;;;;4998092;28;20038;-64
2023/05/07 03:47:13;;;;;;;0.43;0.43;;;13.00;86.50;;;;;;5010725;28;20046;-64
2023/05/07 03:49:39;;;;;;;0.10;0.10;;;12.90;86.60;;;;;;4998339;28;20042;-64
2023/05/07 03:52:05;;;;;;;0.00;0.00;;;12.90;86.80;;;;;;5005215;28;20041;-64
2023/05/07 03:54:31;;;;;;;0.00;0.00;;;12.90;86.60;;;;;;5005162;28;20136;-64
2023/05/07 03:56:57;;;;;;;0.10;0.10;;;12.90;87.20;;;;;;4990815;28;20057;-64
2023/05/07 03:59:22;;;;;;;0.00;0.00;;;12.90;87.20;;;;;;5002805;28;20045;-64
2023/05/07 04:01:49;;;;;;;0.38;0.30;;;13.00;87.00;;;;;;5005785;28;20056;-64
2023/05/07 04:04:15;;;;;;;0.00;0.00;;;12.90;87.30;;;;;;4995055;28;20050;-64
2023/05/07 04:06:41;;;;;;;0.10;0.10;;;12.90;87.50;;;;;;4987430;28;20080;-64
2023/05/07 04:09:07;;;;;;;0.00;0.00;;;12.90;87.40;;;;;;5000430;28;20077;-65
2023/05/07 04:11:32;;;;;;;0.00;0.00;;;12.90;87.50;;;;;;4992582;28;20143;-65
2023/05/07 04:13:58;;;;;;;0.65;0.65;;;12.90;87.40;;;;;;5001819;28;20518;-64
2023/05/07 04:16:23;;;;;;;0.10;0.10;;;12.90;87.00;;;;;;5009892;28;20081;-65
2023/05/07 04:18:49;;;;;;;0.00;0.00;;;12.80;86.90;;;;;;4996647;28;20092;-65
2023/05/07 04:21:19;;;;;;;0.20;0.20;;;12.80;87.00;;;;;;4975371;28;20443;-65
2023/05/07 04:23:47;;;;;;;0.93;0.85;;;12.80;87.20;;;;;;4991570;28;20042;-64
2023/05/07 04:26:12;;;;;;;0.10;0.10;;;12.80;87.30;;;;;;4993239;28;20077;-65
2023/05/07 04:28:39;;;;;;;0.10;0.10;;;12.70;87.40;;;;;;4995717;28;20033;-65
2023/05/07 04:31:05;;;;;;;0.00;0.00;;;12.70;87.30;;;;;;4997103;28;20045;-65
2023/05/07 04:33:31;;;;;;;0.10;0.10;;;12.70;87.20;;;;;;4990247;28;20089;-65
2023/05/07 04:35:57;;;;;;;0.10;0.08;;;12.60;87.10;;;;;;4993533;28;20832;-65
2023/05/07 04:38:23;;;;;;;0.00;0.00;;;12.60;87.10;;;;;;4989185;28;20055;-65
2023/05/07 04:40:49;;;;;;;0.00;0.00;;;12.60;87.00;;;;;;4990702;28;20042;-64
2023/05/07 04:43:15;;;;;;;0.10;0.10;;;12.60;87.10;;;;;;4989531;28;20124;-66
2023/05/07 04:45:41;;;;;;;0.00;0.00;;;12.60;87.30;;;;;;4991030;28;20104;-65
2023/05/07 04:48:08;;;;;;;0.00;0.00;;;12.60;87.00;;;;;;4996921;28;20746;-65
2023/05/07 04:50:34;;;;;;;0.00;0.00;;;12.60;87.30;;;;;;5004570;28;20042;-65
2023/05/07 04:53:00;;;;;;;0.00;0.00;;;12.60;87.30;;;;;;4988618;28;20046;-65
2023/05/07 04:55:25;;;;;;;0.00;0.00;;;12.60;87.10;;;;;;4983365;28;20039;-65
2023/05/07 04:57:52;;;;;;;1.02;0.55;;;12.60;86.90;;;;;;4991047;28;20042;-65
2023/05/07 05:00:19;;;;;;;0.38;0.38;;;12.60;87.00;;;;;;4983907;28;20551;-65
2023/05/07 05:02:45;;;;;;;0.00;0.00;;;12.50;87.20;;;;;;4991479;28;20042;-65
2023/05/07 05:05:11;;;;;;;0.10;0.10;;;12.60;87.00;;;;;;5004968;28;20038;-65
2023/05/07 05:07:37;;;;;;;0.03;0.03;;;12.60;86.90;;;;;;4999964;28;20043;-65
2023/05/07 05:10:03;;;;;;;0.15;0.15;;;12.50;86.80;;;;;;4999426;28;20046;-65
2023/05/07 05:12:30;;;;;;;0.00;0.00;;;12.60;87.00;;;;;;4977070;28;20043;-65
2023/05/07 05:14:55;;;;;;;0.52;0.47;;;12.50;87.00;;;;;;4989486;28;20035;-69
2023/05/07 05:17:21;;;;;;;0.00;0.00;;;12.60;86.90;;;;;;4989414;28;20050;-65
2023/05/07 05:19:46;;;;;;;0.10;0.10;;;12.60;86.90;;;;;;4992859;28;20061;-66
2023/05/07 05:22:12;;;;;;;0.13;0.13;;;12.60;86.70;;;;;;5004406;28;20046;-67
2023/05/07 05:24:37;;;;;;;0.25;0.22;;;12.60;86.70;;;;;;5004130;28;20073;-66
2023/05/07 05:27:03;;;;;;;0.10;0.10;;;12.60;86.80;;;;;;4993640;28;20050;-65
2023/05/07 05:29:29;;;;;;;0.63;0.63;;;12.60;86.80;;;;;;5002063;28;20042;-64
2023/05/07 05:31:55;;;;;;;0.10;0.10;;;12.60;86.80;;;;;;5000079;28;20042;-64
2023/05/07 05:34:22;;;;;;;0.00;0.00;;;12.60;87.30;;;;;;4974556;28;20049;-64
2023/05/07 05:36:48;;;;;;;0.00;0.00;;;12.60;87.30;;;;;;5009085;28;20127;-65
2023/05/07 05:39:14;;;;;;;0.00;0.00;;;12.60;87.00;;;;;;5007519;28;20042;-65
2023/05/07 05:41:39;;;;;;;0.00;0.00;;;12.60;87.10;;;;;;4995742;28;20138;-65
2023/05/07 05:44:05;;;;;;;0.10;0.10;;;12.60;87.10;;;;;;4989890;28;20125;-65
2023/05/07 05:46:31;;;;;;;0.10;0.10;;;12.60;87.10;;;;;;4988845;28;20445;-65
2023/05/07 05:48:56;;;;;;;0.20;0.20;;;12.60;86.90;;;;;;4999017;28;20045;-65
2023/05/07 05:51:23;;;;;;;0.20;0.20;;;12.70;86.70;;;;;;5008318;28;20402;-65
2023/05/07 05:53:48;;;;;;;0.00;0.00;;;12.70;86.70;;;;;;5001557;28;20046;-65
2023/05/07 05:56:15;;;;;;;0.50;0.50;;;12.70;86.90;;;;;;4994126;28;20054;-65
2023/05/07 05:58:41;;;;;;;0.22;0.22;;;12.70;87.10;;;;;;4989195;28;20129;-65
2023/05/07 06:01:07;;;;;;;0.00;0.00;;;12.70;87.00;;;;;;4999542;28;20125;-65
2023/05/07 06:03:33;;;;;;;0.00;0.00;;;12.70;86.90;;;;;;4998686;28;20038;-67
2023/05/07 06:05:59;;;;;;;0.10;0.10;;;12.70;87.00;;;;;;4998654;28;20037;-65
2023/05/07 06:08:25;;;;;;;0.32;0.32;;;12.80;87.00;;;;;;4989011;28;20541;-65
2023/05/07 06:10:51;;;;;;;0.10;0.10;;;12.80;86.90;;;;;;5002726;28;20038;-66
2023/05/07 06:13:17;;;;;;;0.10;0.10;;;12.80;86.80;;;;;;5002221;28;20043;-65
2023/05/07 06:15:42;;;;;;;0.77;0.77;;;12.80;86.60;;;;;;4996931;28;20809;-66
2023/05/07 06:18:08;;;;;;;0.00;0.00;;;12.80;86.60;;;;;;5012107;28;20499;-66
2023/05/07 06:20:34;;;;;;;0.00;0.00;;;12.90;86.60;;;;;;5009892;28;20867;-65
2023/05/07 06:22:59;;;;;;;0.00;0.00;;;12.80;86.50;;;;;;5011434;28;20513;-65
2023/05/07 06:25:25;;;;;;;0.20;0.20;;;12.90;86.70;;;;;;5002578;28;20523;-65
2023/05/07 06:27:50;;;;;;;0.00;0.00;;;12.90;86.50;;;;;;5004976;28;20041;-66
2023/05/07 06:30:16;;;;;;;0.40;0.40;;;12.90;86.70;;;;;;5002445;28;20038;-65
2023/05/07 06:32:42;;;;;;;0.10;0.10;;;12.90;86.80;;;;;;5001129;28;20069;-65
2023/05/07 06:35:08;;;;;;;0.30;0.30;;;13.00;86.70;;;;;;4994498;28;20120;-66
2023/05/07 06:37:33;;;;;;;0.10;0.10;;;13.00;86.50;;;;;;4988599;28;20124;-66
2023/05/07 06:39:59;;;;;;;0.30;0.30;;;13.10;86.80;;;;;;4986787;28;20044;-66
2023/05/07 06:42:24;;;;;;;0.10;0.10;;;13.10;86.60;;;;;;4991034;28;20038;-66
2023/05/07 06:44:50;;;;;;;0.00;0.00;;;13.10;86.50;;;;;;4988963;28;20938;-65
2023/05/07 06:47:15;;;;;;;0.05;0.05;;;13.10;86.60;;;;;;4994121;28;20065;-65
2023/05/07 06:49:41;;;;;;;0.10;0.10;;;13.20;86.70;;;;;;5008517;28;20053;-65
2023/05/07 06:52:07;;;;;;;0.10;0.10;;;13.10;86.60;;;;;;5009798;28;20081;-65
2023/05/07 06:54:32;;;;;;;0.03;0.03;;;13.10;86.60;;;;;;4992964;28;20096;-65
2023/05/07 06:56:58;;;;;;;0.00;0.00;;;13.10;86.50;;;;;;5011316;28;20054;-64
2023/05/07 06:59:23;;;;;;;0.00;0.00;;;13.20;86.60;;;;;;4995904;28;20445;-65
2023/05/07 07:01:49;;;;;;;0.38;0.38;;;13.10;86.40;;;;;;4993682;28;20046;-66
2023/05/07 07:04:15;;;;;;;0.03;0.03;;;13.20;86.40;;;;;;5010939;28;20042;-66
2023/05/07 07:06:40;;;;;;;0.10;0.10;;;13.20;86.20;;;;;;4996391;28;20133;-67
2023/05/07 07:09:06;;;;;;;8.40;2.38;;;13.20;86.20;;;;;;4991687;28;20046;-66
2023/05/07 07:11:31;;;;;;;0.00;0.00;;;13.20;86.30;;;;;;4991629;28;20046;-65
2023/05/07 07:13:58;;;;;;;0.10;0.10;;;13.40;86.20;;;;;;4993762;28;20081;-64
2023/05/07 07:16:24;;;;;;;0.00;0.00;;;13.30;86.10;;;;;;4993942;28;20054;-65
2023/05/07 07:18:49;;;;;;;0.00;0.00;;;13.50;86.30;;;;;;5009247;28;20410;-66
2023/05/07 07:21:15;;;;;;;0.00;0.00;;;13.60;86.20;;;;;;5007390;28;20037;-64
2023/05/07 07:23:41;;;;;;;0.00;0.00;;;13.70;86.10;;;;;;5002908;28;20042;-64
2023/05/07 07:26:06;;;;;;;0.15;0.15;;;13.70;86.10;;;;;;4976186;28;20059;-65
2023/05/07 07:28:32;;;;;;;0.00;0.00;;;13.80;85.90;;;;;;4987934;28;20050;-64
2023/05/07 07:30:57;;;;;;;0.00;0.00;;;13.90;85.70;;;;;;4994855;28;20041;-65
2023/05/07 07:33:23;;;;;;;0.00;0.00;;;13.90;85.70;;;;;;4989251;28;20068;-64
2023/05/07 07:35:49;;;;;;;0.00;0.00;;;14.00;85.70;;;;;;4990918;28;20038;-64
2023/05/07 07:38:14;;;;;;;0.50;0.50;;;14.00;85.70;;;;;;4972843;28;20057;-63
2023/05/07 07:40:40;;;;;;;0.00;0.00;;;14.10;85.60;;;;;;4978939;28;20046;-64
2023/05/07 07:43:05;;;;;;;0.00;0.00;;;14.10;85.70;;;;;;4991402;28;20057;-64
2023/05/07 07:45:31;;;;;;;0.00;0.00;;;14.20;85.60;;;;;;5003224;28;20161;-65
2023/05/07 07:47:57;;;;;;;0.17;0.17;;;14.20;85.50;;;;;;4984588;28;20495;-64
2023/05/07 07:50:22;;;;;;;0.00;0.00;;;14.20;85.40;;;;;;4986950;28;20133;-64
2023/05/07 07:52:48;;;;;;;0.00;0.00;;;14.20;85.20;;;;;;4991379;28;20058;-65
2023/05/07 07:55:17;;;;;;;0.10;0.10;;;14.20;85.00;;;;;;4995075;28;20065;-66
2023/05/07 07:57:43;;;;;;;0.52;0.52;;;14.20;85.20;;;;;;4989302;28;20054;-64
2023/05/07 08:00:09;;;;;;;0.47;0.47;;;14.30;85.10;;;;;;4989858;28;20042;-65
2023/05/07 08:02:35;;;;;;;0.00;0.00;;;14.40;85.00;;;;;;4988545;28;20057;-65
2023/05/07 08:05:00;;;;;;;0.00;0.00;;;14.40;84.80;;;;;;4984207;28;20046;-65
2023/05/07 08:07:26;;;;;;;0.30;0.30;;;14.40;84.80;;;;;;4991449;28;20039;-64
2023/05/07 08:09:51;;;;;;;0.20;0.20;;;14.40;84.70;;;;;;4987789;28;20034;-64
2023/05/07 08:12:18;;;;;;;0.10;0.10;;;14.40;84.70;;;;;;4990279;28;20549;-64
2023/05/07 08:14:44;;;;;;;1.35;0.43;;;14.40;84.60;;;;;;4988606;28;20058;-64
2023/05/07 08:17:10;;;;;;;0.00;0.00;;;14.40;84.80;;;;;;4987371;28;20073;-64
2023/05/07 08:19:35;;;;;;;0.00;0.00;;;14.50;84.70;;;;;;4967772;28;20519;-64
2023/05/07 08:22:02;;;;;;;0.00;0.00;;;14.60;84.90;;;;;;4988935;28;20137;-65
2023/05/07 08:24:28;;;;;;;0.00;0.00;;;14.60;84.70;;;;;;4985815;28;20063;-64
2023/05/07 08:26:53;;;;;;;0.10;0.10;;;14.60;84.90;;;;;;4985947;28;20105;-64
2023/05/07 08:29:19;;;;;;;0.00;0.00;;;14.80;84.80;;;;;;4987029;28;20471;-64
2023/05/07 08:31:45;;;;;;;0.10;0.10;;;14.90;84.70;;;;;;4989600;28;20514;-64
2023/05/07 08:34:10;;;;;;;0.10;0.10;;;14.90;84.50;;;;;;4995129;28;20053;-64
2023/05/07 08:36:36;;;;;;;0.05;0.05;;;15.00;84.30;;;;;;4986025;28;20046;-64
2023/05/07 08:39:02;;;;;;;0.30;0.30;;;15.10;84.30;;;;;;4988555;28;20521;-64
2023/05/07 08:41:27;;;;;;;0.08;0.08;;;15.10;84.30;;;;;;4986692;28;20535;-64
2023/05/07 08:43:58;;;;;;;0.20;0.20;;;15.20;84.60;;;;;;4988773;28;20546;-64
2023/05/07 08:46:25;;;;;;;0.00;0.00;;;15.30;84.30;;;;;;4992503;28;20444;-65
2023/05/07 08:48:51;;;;;;;15.50;1.00;;;15.20;84.00;;;;;;4998761;28;20080;-64
2023/05/07 08:51:21;;;;;;;0.00;0.00;;;15.30;84.00;;;;;;4991280;28;20133;-64
2023/05/07 08:53:48;;;;;;;0.00;0.00;;;15.30;84.10;;;;;;5000765;28;20534;-64
2023/05/07 08:56:15;;;;;;;0.35;0.13;;;15.40;84.10;;;;;;4986256;28;20038;-64
2023/05/07 08:58:42;;;;;;;0.00;0.00;;;15.50;83.90;;;;;;4988540;28;20069;-64
2023/05/07 09:01:12;;;;;;;0.95;0.95;;;15.60;83.80;;;;;;4989348;28;20638;-64
2023/05/07 09:03:39;;;;;;;0.10;0.10;;;15.70;83.80;;;;;;4993974;28;20038;-64
2023/05/07 09:06:05;;;;;;;0.10;0.10;;;15.90;83.70;;;;;;5001536;28;20590;-64
2023/05/07 09:08:32;;;;;;;0.10;0.10;;;16.00;83.50;;;;;;5002358;28;20125;-64
2023/05/07 09:10:58;;;;;;;0.03;0.03;;;16.20;83.20;;;;;;4995928;28;20038;-65
2023/05/07 09:13:24;;;;;;;0.00;0.00;;;16.30;83.00;;;;;;4989378;28;20101;-62
2023/05/07 09:15:50;;;;;;;0.03;0.03;;;16.30;82.70;;;;;;4988180;28;20038;-65
2023/05/07 09:18:16;;;;;;;0.40;0.40;;;16.50;82.60;;;;;;4988594;28;20050;-62
2023/05/07 09:20:41;;;;;;;2.95;1.38;;;16.50;82.30;;;;;;4989004;28;20097;-62
2023/05/07 09:23:08;;;;;;;0.35;0.32;;;16.50;82.10;;;;;;4986102;28;20513;-62
2023/05/07 09:25:35;;;;;;;0.10;0.10;;;16.50;81.90;;;;;;4977068;28;20057;-62
2023/05/07 09:28:02;;;;;;;0.10;0.10;;;16.70;82.10;;;;;;4988927;28;20042;-62
2023/05/07 09:30:29;;;;;;;0.40;0.40;;;16.70;81.90;;;;;;4985537;28;20126;-62
2023/05/07 09:32:56;;;;;;;0.10;0.10;;;16.80;81.90;;;;;;4989088;28;20046;-62
2023/05/07 09:35:24;;;;;;;0.63;0.63;;;16.80;81.50;;;;;;4987683;28;20089;-63
2023/05/07 09:37:49;;;;;;;0.80;0.80;;;16.90;81.60;;;;;;4988306;28;20069;-63
2023/05/07 09:40:23;;;;;;;0.20;0.20;;;17.00;81.50;;;;;;4990738;28;20699;-64
2023/05/07 09:42:49;;;;;;;0.05;0.05;;;17.00;81.40;;;;;;4994452;28;20045;-64
2023/05/07 09:45:25;;;;;;;0.00;0.00;;;17.00;81.00;;;;;;4987557;28;20051;-64
2023/05/07 09:47:55;;;;;;;0.00;0.00;;;17.00;81.10;;;;;;4988687;28;20101;-64
2023/05/07 09:50:27;;;;;;;0.00;0.00;;;17.10;81.20;;;;;;4992989;28;20054;-63
2023/05/07 09:52:55;;;;;;;0.00;0.00;;;17.10;81.10;;;;;;4998546;28;20053;-63
2023/05/07 09:55:21;;;;;;;0.00;0.00;;;17.20;81.00;;;;;;4991730;28;20062;-63
2023/05/07 09:57:52;;;;;;;0.00;0.00;;;17.10;80.80;;;;;;4991599;28;20054;-64
2023/05/07 10:00:22;;;;;;;0.00;0.00;;;17.10;80.50;;;;;;4999214;28;20145;-64
2023/05/07 10:02:51;;;;;;;0.00;0.00;;;17.20;80.30;;;;;;5011943;28;20070;-63
2023/05/07 10:05:18;;;;;;;0.00;0.00;;;17.20;80.60;;;;;;4994099;28;20042;-64
2023/05/07 10:07:44;;;;;;;0.15;0.15;;;17.30;80.40;;;;;;4991398;28;20042;-64
2023/05/07 10:10:10;;;;;;;0.17;0.17;;;17.30;80.30;;;;;;4986672;28;20046;-64
2023/05/07 10:12:38;;;;;;;0.00;0.00;;;17.40;80.40;;;;;;4992141;28;20046;-64
2023/05/07 10:15:14;;;;;;;0.10;0.10;;;17.50;80.20;;;;;;4991403;28;20060;-64
2023/05/07 10:17:40;;;;;;;0.10;0.10;;;17.60;80.40;;;;;;4994799;28;20606;-65
2023/05/07 10:20:07;;;;;;;0.00;0.00;;;17.60;80.30;;;;;;4992458;28;20050;-64
2023/05/07 10:22:45;;;;;;;0.30;0.30;;;17.70;80.20;;;;;;4992319;28;20038;-64
2023/05/07 10:25:32;;;;;;;0.00;0.00;;;17.70;80.10;;;;;;4990134;28;20600;-64
2023/05/07 10:28:04;;;;;;;0.00;0.00;;;17.80;80.10;;;;;;4984724;28;20054;-64
2023/05/07 10:31:00;;;;;;;0.68;0.25;;;17.80;79.40;;;;;;4998660;28;20081;-64
2023/05/07 10:33:28;;;;;;;0.00;0.00;;;17.80;79.50;;;;;;4991178;28;20050;-64
2023/05/07 10:36:00;;;;;;;0.65;0.50;;;17.90;79.60;;;;;;4990738;28;20038;-64
2023/05/07 10:38:27;;;;;;;0.00;0.00;;;18.00;79.50;;;;;;4991966;28;20096;-63
2023/05/07 10:40:53;;;;;;;0.10;0.10;;;18.10;79.40;;;;;;4992556;28;20491;-63
2023/05/07 10:43:19;;;;;;;0.00;0.00;;;18.10;79.10;;;;;;4991890;28;20054;-63
2023/05/07 10:46:12;;;;;;;0.17;0.17;;;18.00;79.00;;;;;;4991214;28;20078;-64
2023/05/07 10:49:11;;;;;;;0.20;0.20;;;18.10;79.40;;;;;;4980255;28;20483;-62
2023/05/07 10:51:37;;;;;;;0.00;0.00;;;18.10;78.60;;;;;;4990509;28;20038;-62
2023/05/07 10:54:12;;;;;;;0.00;0.00;;;18.10;78.00;;;;;;5002717;28;20050;-63
2023/05/07 10:56:38;;;;;;;0.00;0.00;;;18.20;78.70;;;;;;4993246;28;20788;-63
2023/05/07 10:59:30;;;;;;;0.20;0.20;;;18.20;78.40;;;;;;4991250;28;20035;-63
2023/05/07 11:02:02;;;;;;;0.10;0.10;;;18.20;78.90;;;;;;4981646;28;20045;-62
2023/05/07 11:04:27;;;;;;;0.00;0.00;;;18.30;78.80;;;;;;4979934;28;20049;-62
2023/05/07 11:07:08;;;;;;;0.40;0.40;;;18.30;79.00;;;;;;4990501;28;20038;-62
2023/05/07 11:10:04;;;;;;;0.00;0.00;;;18.50;78.70;;;;;;4988897;28;20138;-62
2023/05/07 11:12:36;;;;;;;0.00;0.00;;;18.50;78.80;;;;;;4970081;28;20054;-62
2023/05/07 11:15:08;;;;;;;0.00;0.00;;;18.50;78.20;;;;;;4990202;28;20201;-62
2023/05/07 11:17:51;;;;;;;0.08;0.08;;;18.50;78.40;;;;;;4994580;28;20559;-62
2023/05/07 11:20:17;;;;;;;0.00;0.00;;;18.60;78.30;;;;;;4989693;28;20125;-63
2023/05/07 11:22:43;;;;;;;0.10;0.10;;;18.70;78.40;;;;;;4986304;28;20054;-64
2023/05/07 11:25:08;;;;;;;0.00;0.00;;;18.80;78.20;;;;;;4987797;28;20050;-62
2023/05/07 11:27:34;;;;;;;0.30;0.30;;;18.80;77.40;;;;;;4984157;28;20081;-63
2023/05/07 11:30:00;;;;;;;0.00;0.00;;;18.90;77.50;;;;;;4989472;28;20038;-63
2023/05/07 11:32:31;;;;;;;0.00;0.00;;;19.00;77.80;;;;;;4988698;28;20042;-63
2023/05/07 11:34:58;;;;;;;0.13;0.13;;;19.10;77.50;;;;;;4990065;28;20038;-64
2023/05/07 11:37:26;;;;;;;0.80;0.38;;;19.20;77.30;;;;;;4981778;28;20038;-62
2023/05/07 11:40:06;;;;;;;0.00;0.00;;;19.30;77.30;;;;;;4991137;28;20053;-62
2023/05/07 11:42:37;;;;;;;0.17;0.17;;;19.40;77.30;;;;;;4990603;28;20101;-63
2023/05/07 11:45:03;;;;;;;0.70;0.70;;;19.50;77.00;;;;;;4989573;28;20046;-62
2023/05/07 11:47:33;;;;;;;0.00;0.00;;;19.60;76.90;;;;;;4986028;28;20049;-63
2023/05/07 11:50:04;;;;;;;0.68;0.52;;;19.60;76.60;;;;;;4988766;28;20384;-62
2023/05/07 11:52:29;;;;;;;0.00;0.00;;;19.70;75.90;;;;;;5004728;28;20409;-63
2023/05/07 11:54:56;;;;;;;0.00;0.00;;;19.80;75.60;;;;;;4992383;28;20038;-62
2023/05/07 11:57:23;;;;;;;0.00;0.00;;;19.90;75.60;;;;;;4992899;28;20399;-64
2023/05/07 11:59:56;;;;;;;0.00;0.00;;;20.00;75.30;;;;;;4993163;28;20049;-63
2023/05/07 12:02:22;;;;;;;0.05;0.05;;;20.10;75.10;;;;;;4986561;28;20474;-62
2023/05/07 12:04:47;;;;;;;0.15;0.15;;;20.20;75.30;;;;;;4996119;28;20146;-63
2023/05/07 12:07:16;;;;;;;0.40;0.40;;;20.30;74.70;;;;;;4991394;28;20069;-63
2023/05/07 12:09:43;;;;;;;0.35;0.35;;;20.40;74.00;;;;;;4986987;28;20039;-62
2023/05/07 12:12:09;;;;;;;0.00;0.00;;;20.50;74.50;;;;;;4992837;28;20135;-62
2023/05/07 12:14:42;;;;;;;0.00;0.00;;;20.50;74.70;;;;;;4986031;28;20078;-62
2023/05/07 12:17:08;;;;;;;0.00;0.00;;;20.60;74.30;;;;;;4983265;28;20062;-63
2023/05/07 12:19:35;;;;;;;0.00;0.00;;;20.70;74.40;;;;;;4993335;28;20522;-63
2023/05/07 12:22:02;;;;;;;0.00;0.00;;;20.70;71.60;;;;;;4977693;28;20050;-63
2023/05/07 12:24:28;;;;;;;0.00;0.00;;;20.70;72.40;;;;;;4985049;28;20077;-62
2023/05/07 12:26:54;;;;;;;0.38;0.38;;;20.80;72.50;;;;;;4990641;28;20088;-63
2023/05/07 12:29:23;;;;;;;1.55;0.95;;;20.80;72.10;;;;;;4990528;28;20040;-62
2023/05/07 12:31:50;;;;;;;0.00;0.00;;;20.80;70.90;;;;;;4989250;28;20054;-63
2023/05/07 12:34:15;;;;;;;0.38;0.38;;;20.80;72.50;;;;;;4991043;28;20487;-63
2023/05/07 12:36:41;;;;;;;0.03;0.03;;;20.90;72.10;;;;;;4990229;28;20065;-62
2023/05/07 12:39:08;;;;;;;0.00;0.00;;;20.90;71.20;;;;;;4988204;28;20518;-62
2023/05/07 12:41:56;;;;;;;0.57;0.57;;;21.00;72.50;;;;;;4988899;28;20440;-62
2023/05/07 12:44:35;;;;;;;0.00;0.00;;;21.10;73.10;;;;;;5004840;28;20037;-63
2023/05/07 12:47:02;;;;;;;0.05;0.05;;;21.20;73.20;;;;;;4990093;28;20054;-63